Time;durP1;ratioP1;P1;durP2;ratioP2;P2;SDS_P1;SDS_P2;PMS_P1;PMS_P2;Temp;Humidity;BMP_temperature;BMP_pressure;BME280_temperature;BME280_humidity;BME280_pressure;Samples;Min_cycle;Max_cycle;Signal;HPM_P1;HPM_P2
2022/10/13 00:01:19;;;;;;;21.10;12.77;;;10.40;99.90;;;;;;5089768;28;20027;-43
2022/10/13 00:03:46;;;;;;;22.52;13.05;;;10.50;99.90;;;;;;5087760;28;20123;-45
2022/10/13 00:06:13;;;;;;;25.77;13.05;;;10.50;99.90;;;;;;5087907;28;20056;-44
2022/10/13 00:08:39;;;;;;;18.98;12.52;;;10.40;99.90;;;;;;5088755;28;20048;-44
2022/10/13 00:11:14;;;;;;;23.15;13.68;;;10.50;99.90;;;;;;5090132;28;20525;-44
2022/10/13 00:13:41;;;;;;;28.73;15.48;;;10.50;99.90;;;;;;5089560;28;20040;-42
2022/10/13 00:16:08;;;;;;;27.63;13.70;;;10.40;99.90;;;;;;5087651;28;20047;-42
2022/10/13 00:18:34;;;;;;;24.65;12.85;;;10.30;99.90;;;;;;5089884;28;20383;-43
2022/10/13 00:21:00;;;;;;;21.48;13.13;;;10.30;99.90;;;;;;5089905;28;20028;-43
2022/10/13 00:23:26;;;;;;;27.98;13.18;;;10.40;99.90;;;;;;5089629;28;20039;-44
2022/10/13 00:25:51;;;;;;;23.27;13.90;;;10.40;99.90;;;;;;5089459;28;20047;-42
2022/10/13 00:28:19;;;;;;;23.95;13.27;;;10.40;99.90;;;;;;5089649;28;20491;-45
2022/10/13 00:30:45;;;;;;;24.00;13.30;;;10.30;99.90;;;;;;5088536;28;20039;-43
2022/10/13 00:33:12;;;;;;;32.03;13.82;;;10.30;99.90;;;;;;5089322;28;20071;-43
2022/10/13 00:35:42;;;;;;;23.85;13.23;;;10.40;99.90;;;;;;5088586;28;20047;-44
2022/10/13 00:38:08;;;;;;;27.35;13.43;;;10.30;99.90;;;;;;5089751;28;20032;-42
2022/10/13 00:40:47;;;;;;;23.40;12.98;;;10.40;99.90;;;;;;5089253;28;20036;-44
2022/10/13 00:43:26;;;;;;;24.05;13.00;;;10.40;99.90;;;;;;5089267;28;20043;-45
2022/10/13 00:45:52;;;;;;;24.67;12.38;;;10.30;99.90;;;;;;5089222;28;20040;-47
2022/10/13 00:48:29;;;;;;;26.38;13.05;;;10.30;99.90;;;;;;5088170;28;20075;-42
2022/10/13 00:50:57;;;;;;;22.25;13.18;;;10.40;99.90;;;;;;5089507;28;20028;-43
2022/10/13 00:53:25;;;;;;;21.15;13.13;;;10.30;99.90;;;;;;5089261;28;20036;-44
2022/10/13 00:55:52;;;;;;;23.63;13.30;;;10.30;99.90;;;;;;5089408;28;20479;-46
2022/10/13 00:58:21;;;;;;;24.40;12.60;;;10.30;99.90;;;;;;5089316;28;20035;-44
2022/10/13 01:00:49;;;;;;;24.17;12.85;;;10.30;99.90;;;;;;5088890;28;20059;-43
2022/10/13 01:03:14;;;;;;;23.27;12.40;;;10.30;99.90;;;;;;5089198;28;20090;-44
2022/10/13 01:05:41;;;;;;;22.88;12.35;;;10.30;99.90;;;;;;5089351;28;20040;-44
2022/10/13 01:08:09;;;;;;;22.65;13.55;;;10.40;99.90;;;;;;5089489;28;20044;-43
2022/10/13 01:10:48;;;;;;;23.55;13.32;;;10.30;99.90;;;;;;5089140;28;20076;-42
2022/10/13 01:13:30;;;;;;;24.92;12.35;;;10.30;99.90;;;;;;5088080;28;20101;-42
2022/10/13 01:16:04;;;;;;;24.05;12.95;;;10.30;99.90;;;;;;5087683;28;20068;-43
2022/10/13 01:18:51;;;;;;;26.42;12.80;;;10.30;99.90;;;;;;5087686;28;20097;-44
2022/10/13 01:21:29;;;;;;;21.42;11.93;;;10.20;99.90;;;;;;5089044;28;20119;-42
2022/10/13 01:24:18;;;;;;;24.75;12.98;;;10.30;99.90;;;;;;5088727;28;20093;-43
2022/10/13 01:27:04;;;;;;;23.92;13.60;;;10.20;99.90;;;;;;5089288;28;20410;-45
2022/10/13 01:29:48;;;;;;;25.67;13.27;;;10.30;99.90;;;;;;5087859;28;20395;-42
2022/10/13 01:32:27;;;;;;;;;;;10.20;99.90;;;;;;5089142;28;20096;-45
2022/10/13 01:35:10;;;;;;;21.67;12.15;;;10.30;99.90;;;;;;5089122;28;20355;-44
2022/10/13 01:38:00;;;;;;;20.25;12.40;;;10.20;99.90;;;;;;5088668;28;20071;-44
2022/10/13 01:40:41;;;;;;;25.25;13.02;;;10.30;99.90;;;;;;5087616;28;20050;-43
2022/10/13 01:43:16;;;;;;;22.27;12.55;;;10.30;99.90;;;;;;5088720;28;20040;-45
2022/10/13 01:45:59;;;;;;;21.27;12.63;;;10.10;99.90;;;;;;5088526;28;20028;-43
2022/10/13 01:48:25;;;;;;;21.02;12.40;;;10.30;99.90;;;;;;5092067;28;20036;-44
2022/10/13 01:50:53;;;;;;;24.92;13.68;;;10.20;99.90;;;;;;5091140;28;20040;-42
2022/10/13 01:53:20;;;;;;;19.83;12.10;;;10.20;99.90;;;;;;5091790;28;20051;-42
2022/10/13 01:55:50;;;;;;;23.38;12.63;;;10.30;99.90;;;;;;5090886;28;20044;-43
2022/10/13 01:58:16;;;;;;;22.23;12.57;;;10.40;99.90;;;;;;5091624;28;20105;-43
2022/10/13 02:01:10;;;;;;;23.05;12.35;;;10.40;99.90;;;;;;5092586;28;20028;-42
2022/10/13 02:03:43;;;;;;;25.50;12.57;;;10.30;99.90;;;;;;5060152;28;20044;-44
2022/10/13 02:06:20;;;;;;;22.02;12.15;;;10.40;99.90;;;;;;5092418;28;20547;-43
2022/10/13 02:08:54;;;;;;;21.85;13.45;;;10.50;99.90;;;;;;5092040;28;20109;-43
2022/10/13 02:11:22;;;;;;;22.08;13.05;;;10.50;99.90;;;;;;5092342;28;20133;-43
2022/10/13 02:14:02;;;;;;;24.58;12.93;;;10.50;99.90;;;;;;5090857;28;20043;-44
2022/10/13 02:16:32;;;;;;;21.00;12.68;;;10.40;99.90;;;;;;5091589;28;20033;-44
2022/10/13 02:18:59;;;;;;;24.60;12.82;;;10.60;99.90;;;;;;5091220;28;20426;-43
2022/10/13 02:21:25;;;;;;;21.95;12.73;;;10.60;99.90;;;;;;5092039;28;20157;-44
2022/10/13 02:23:51;;;;;;;25.60;13.73;;;10.40;99.90;;;;;;5090361;28;20043;-44
2022/10/13 02:26:17;;;;;;;24.33;13.88;;;10.50;99.90;;;;;;5091781;28;20032;-43
2022/10/13 02:28:43;;;;;;;23.30;14.13;;;10.50;99.90;;;;;;5090310;28;20040;-42
2022/10/13 02:31:09;;;;;;;21.48;12.48;;;10.50;99.90;;;;;;5091864;28;20389;-44
2022/10/13 02:33:35;;;;;;;25.05;13.93;;;10.50;99.90;;;;;;5091300;28;20063;-43
2022/10/13 02:36:00;;;;;;;26.48;14.02;;;10.40;99.90;;;;;;5091899;28;20047;-44
2022/10/13 02:38:26;;;;;;;25.92;13.40;;;10.40;99.90;;;;;;5091499;28;20078;-43
2022/10/13 02:40:53;;;;;;;25.30;13.93;;;10.50;99.90;;;;;;5091587;28;20033;-42
2022/10/13 02:43:19;;;;;;;24.63;14.50;;;10.50;99.90;;;;;;5091637;28;20534;-44
2022/10/13 02:45:45;;;;;;;22.52;14.00;;;10.50;99.90;;;;;;5091272;28;20065;-44
2022/10/13 02:48:10;;;;;;;23.15;14.15;;;10.60;99.90;;;;;;5091656;28;20051;-44
2022/10/13 02:50:36;;;;;;;24.65;14.25;;;10.50;99.90;;;;;;5091566;28;20043;-43
2022/10/13 02:53:02;;;;;;;24.80;14.80;;;10.70;99.90;;;;;;5090968;28;20036;-43
2022/10/13 02:55:30;;;;;;;23.70;13.55;;;10.60;99.90;;;;;;5089620;28;20173;-43
2022/10/13 02:57:56;;;;;;;27.15;14.00;;;10.60;99.90;;;;;;5091587;28;20114;-45
2022/10/13 03:00:22;;;;;;;23.60;13.90;;;10.60;99.90;;;;;;5091951;28;20028;-44
2022/10/13 03:02:48;;;;;;;28.13;14.00;;;10.40;99.90;;;;;;5089631;28;20052;-44
2022/10/13 03:05:13;;;;;;;25.50;14.85;;;10.50;99.90;;;;;;5073046;28;20098;-43
2022/10/13 03:07:39;;;;;;;24.75;14.88;;;10.50;99.90;;;;;;5091141;28;20039;-44
2022/10/13 03:10:05;;;;;;;26.45;15.65;;;10.40;99.90;;;;;;5090639;28;20039;-42
2022/10/13 03:12:31;;;;;;;24.30;14.88;;;10.40;99.90;;;;;;5091080;28;20040;-43
2022/10/13 03:14:56;;;;;;;29.42;14.55;;;10.50;99.90;;;;;;5090198;28;20123;-42
2022/10/13 03:17:22;;;;;;;27.98;15.27;;;10.50;99.90;;;;;;5090942;28;20040;-43
2022/10/13 03:19:48;;;;;;;26.52;15.13;;;10.60;99.90;;;;;;5090739;28;20475;-43
2022/10/13 03:22:14;;;;;;;31.85;15.93;;;10.40;99.90;;;;;;5091044;28;20039;-42
2022/10/13 03:24:40;;;;;;;26.35;15.80;;;10.40;99.90;;;;;;5091494;28;20071;-43
2022/10/13 03:27:06;;;;;;;29.63;16.58;;;10.40;99.90;;;;;;5091177;28;20059;-42
2022/10/13 03:29:32;;;;;;;28.75;16.23;;;10.30;99.90;;;;;;5090477;28;20032;-43
2022/10/13 03:31:58;;;;;;;33.50;18.13;;;10.40;99.90;;;;;;5090479;28;20403;-44
2022/10/13 03:34:24;;;;;;;29.40;16.90;;;10.40;99.90;;;;;;5090274;28;20129;-43
2022/10/13 03:36:50;;;;;;;30.77;17.88;;;10.30;99.90;;;;;;5090879;28;20480;-44
2022/10/13 03:39:15;;;;;;;31.00;17.83;;;10.30;99.90;;;;;;5091216;28;20039;-43
2022/10/13 03:41:41;;;;;;;28.52;16.75;;;10.50;99.90;;;;;;5090635;28;20044;-42
2022/10/13 03:44:12;;;;;;;33.65;18.15;;;10.50;99.90;;;;;;5089078;28;20047;-42
2022/10/13 03:46:38;;;;;;;32.10;17.52;;;10.20;99.90;;;;;;5088890;28;20032;-43
2022/10/13 03:49:04;;;;;;;29.38;17.58;;;10.40;99.90;;;;;;5088892;28;20035;-44
2022/10/13 03:51:29;;;;;;;31.45;17.80;;;10.20;99.90;;;;;;5089738;28;20042;-43
2022/10/13 03:53:55;;;;;;;30.83;18.55;;;10.30;99.90;;;;;;5090349;28;20032;-43
2022/10/13 03:56:24;;;;;;;29.20;16.45;;;10.50;99.90;;;;;;5088811;28;20083;-43
2022/10/13 03:58:53;;;;;;;37.30;17.95;;;10.20;99.90;;;;;;5087168;28;20035;-43
2022/10/13 04:01:19;;;;;;;31.98;16.95;;;10.20;99.90;;;;;;5090434;28;20039;-43
2022/10/13 04:03:45;;;;;;;30.73;17.98;;;10.50;99.90;;;;;;5089240;28;20039;-46
2022/10/13 04:06:11;;;;;;;30.15;17.50;;;10.30;99.90;;;;;;5090575;28;20395;-42
2022/10/13 04:08:36;;;;;;;30.20;18.13;;;10.40;99.90;;;;;;5089571;28;20036;-41
2022/10/13 04:11:05;;;;;;;34.55;18.65;;;10.30;99.90;;;;;;5089745;28;20054;-43
2022/10/13 04:13:31;;;;;;;29.45;18.08;;;10.50;99.90;;;;;;5088731;28;20476;-43
2022/10/13 04:16:12;;;;;;;33.17;17.90;;;10.40;99.90;;;;;;5087814;28;20032;-43
2022/10/13 04:18:37;;;;;;;36.60;18.33;;;10.40;99.90;;;;;;5089972;28;20097;-43
2022/10/13 04:21:09;;;;;;;31.95;17.98;;;10.30;99.90;;;;;;5088401;28;20479;-46
2022/10/13 04:23:35;;;;;;;35.13;19.20;;;10.50;99.90;;;;;;5089625;28;20610;-46
2022/10/13 04:26:01;;;;;;;30.88;19.05;;;10.20;99.90;;;;;;5088363;28;20120;-42
2022/10/13 04:28:27;;;;;;;36.13;19.55;;;10.30;99.90;;;;;;5089844;28;20122;-44
2022/10/13 04:30:52;;;;;;;32.72;19.23;;;10.20;99.90;;;;;;5089412;28;20460;-43
2022/10/13 04:33:18;;;;;;;33.13;19.98;;;10.30;99.90;;;;;;5089611;28;20048;-43
2022/10/13 04:35:44;;;;;;;33.33;19.10;;;10.40;99.90;;;;;;5089317;28;20055;-42
2022/10/13 04:38:09;;;;;;;37.00;19.77;;;10.20;99.90;;;;;;5089628;28;20071;-44
2022/10/13 04:40:35;;;;;;;32.90;19.08;;;10.40;99.90;;;;;;5089280;28;20028;-43
2022/10/13 04:43:01;;;;;;;34.58;19.27;;;10.50;99.90;;;;;;5089453;28;20089;-43
2022/10/13 04:45:27;;;;;;;33.72;20.50;;;10.30;99.90;;;;;;5089300;28;20071;-44
2022/10/13 04:47:52;;;;;;;34.13;18.75;;;10.30;99.90;;;;;;5089551;28;20047;-44
2022/10/13 04:50:19;;;;;;;29.83;18.35;;;10.40;99.90;;;;;;5089718;28;20395;-47
2022/10/13 04:52:44;;;;;;;28.63;17.63;;;10.20;99.90;;;;;;5089740;28;20036;-43
2022/10/13 04:55:10;;;;;;;29.98;18.15;;;10.20;99.90;;;;;;5089579;28;20040;-44
2022/10/13 04:57:36;;;;;;;32.88;19.65;;;10.30;99.90;;;;;;5088770;28;20040;-43
2022/10/13 05:00:06;;;;;;;31.38;19.50;;;10.30;99.90;;;;;;5089986;28;20375;-43
2022/10/13 05:02:34;;;;;;;43.78;20.13;;;10.50;99.90;;;;;;5089421;28;20115;-43
2022/10/13 05:04:59;;;;;;;35.22;19.27;;;10.60;99.90;;;;;;5089319;28;20044;-42
2022/10/13 05:07:25;;;;;;;35.63;20.10;;;10.60;99.90;;;;;;5089489;28;20439;-42
2022/10/13 05:09:51;;;;;;;35.72;18.73;;;10.30;99.90;;;;;;5089384;28;20530;-42
2022/10/13 05:12:16;;;;;;;33.25;19.40;;;10.70;99.90;;;;;;5086459;28;20159;-43
2022/10/13 05:14:42;;;;;;;34.95;19.48;;;10.60;99.90;;;;;;5086450;28;20383;-43
2022/10/13 05:17:08;;;;;;;36.35;19.90;;;10.40;99.90;;;;;;5080606;28;20075;-43
2022/10/13 05:19:33;;;;;;;34.72;19.52;;;10.40;99.90;;;;;;5088859;28;20490;-42
2022/10/13 05:21:59;;;;;;;33.80;20.23;;;10.50;99.90;;;;;;5092782;28;20031;-42
2022/10/13 05:24:35;;;;;;;37.05;20.20;;;10.60;99.90;;;;;;5092880;28;20035;-42
2022/10/13 05:27:07;;;;;;;34.72;20.38;;;10.50;99.90;;;;;;5092250;28;20044;-43
2022/10/13 05:29:33;;;;;;;34.75;19.55;;;10.70;99.90;;;;;;5092242;28;20138;-44
2022/10/13 05:31:58;;;;;;;34.92;19.60;;;10.40;99.90;;;;;;5093227;28;20122;-43
2022/10/13 05:34:24;;;;;;;32.60;19.52;;;10.40;99.90;;;;;;5091024;28;20052;-43
2022/10/13 05:36:50;;;;;;;34.47;20.48;;;10.40;99.90;;;;;;5092724;28;20040;-43
2022/10/13 05:39:16;;;;;;;35.35;19.95;;;10.70;99.90;;;;;;5088169;28;20052;-43
2022/10/13 05:41:42;;;;;;;35.47;21.35;;;10.70;99.90;;;;;;5086126;28;20071;-43
2022/10/13 05:44:08;;;;;;;34.38;20.23;;;10.70;99.90;;;;;;5088718;28;20115;-43
2022/10/13 05:46:34;;;;;;;34.47;21.13;;;10.40;99.90;;;;;;5091198;28;20105;-43
2022/10/13 05:49:00;;;;;;;38.05;20.73;;;10.80;99.90;;;;;;5091974;28;20036;-42
2022/10/13 05:51:36;;;;;;;33.38;21.40;;;10.70;99.90;;;;;;5091656;28;20044;-43
2022/10/13 05:54:14;;;;;;;33.55;20.83;;;10.80;99.90;;;;;;5092389;28;20040;-43
2022/10/13 05:56:58;;;;;;;31.63;19.65;;;10.60;99.90;;;;;;5084620;28;20454;-42
2022/10/13 05:59:26;;;;;;;37.28;21.23;;;10.50;99.90;;;;;;5082989;28;20107;-43
2022/10/13 06:01:52;;;;;;;35.03;20.70;;;10.60;99.90;;;;;;5083607;28;20032;-42
2022/10/13 06:04:25;;;;;;;39.30;20.85;;;10.80;99.90;;;;;;5081815;28;20166;-43
2022/10/13 06:06:51;;;;;;;34.03;20.35;;;10.80;99.90;;;;;;5083069;28;20040;-44
2022/10/13 06:09:17;;;;;;;34.55;20.80;;;10.80;99.90;;;;;;5083356;28;20042;-45
2022/10/13 06:11:43;;;;;;;36.83;19.80;;;10.60;99.90;;;;;;5081051;28;20042;-42
2022/10/13 06:14:08;;;;;;;36.22;20.75;;;10.90;99.90;;;;;;5081481;28;20052;-43
2022/10/13 06:16:35;;;;;;;31.60;20.98;;;10.70;99.90;;;;;;5081979;28;20036;-42
2022/10/13 06:19:02;;;;;;;31.42;20.35;;;10.90;99.90;;;;;;5082403;28;20077;-42
2022/10/13 06:21:28;;;;;;;35.45;20.83;;;10.90;99.90;;;;;;5083211;28;20032;-43
2022/10/13 06:23:53;;;;;;;34.22;21.33;;;10.60;99.90;;;;;;5083224;28;20028;-43
2022/10/13 06:26:19;;;;;;;34.75;21.77;;;10.90;99.90;;;;;;5082228;28;20032;-43
2022/10/13 06:28:45;;;;;;;37.75;21.58;;;10.70;99.90;;;;;;5080616;28;20485;-42
2022/10/13 06:31:11;;;;;;;41.80;21.38;;;10.70;99.90;;;;;;5082620;28;20466;-42
2022/10/13 06:33:36;;;;;;;38.25;21.70;;;10.80;99.90;;;;;;5076725;28;20044;-43
2022/10/13 06:36:04;;;;;;;36.85;21.98;;;11.10;99.90;;;;;;5072390;28;20510;-43
2022/10/13 06:38:30;;;;;;;43.85;22.20;;;10.80;99.90;;;;;;5079816;28;20186;-44
2022/10/13 06:41:03;;;;;;;34.47;21.00;;;10.70;99.90;;;;;;5086243;28;20106;-43
2022/10/13 06:43:29;;;;;;;34.35;21.10;;;10.90;99.90;;;;;;5088084;28;20338;-45
2022/10/13 06:45:59;;;;;;;34.67;20.75;;;10.90;99.90;;;;;;5088296;28;20032;-43
2022/10/13 06:48:28;;;;;;;34.13;21.33;;;11.10;99.90;;;;;;5091272;28;20513;-42
2022/10/13 06:50:53;;;;;;;38.42;21.88;;;11.10;99.90;;;;;;5090323;28;20039;-42
2022/10/13 06:53:19;;;;;;;37.58;21.00;;;11.10;99.90;;;;;;5091370;28;20035;-43
2022/10/13 06:55:45;;;;;;;37.30;21.70;;;10.80;99.90;;;;;;5091603;28;20514;-42
2022/10/13 06:58:11;;;;;;;39.13;21.08;;;10.80;99.90;;;;;;5091416;28;20360;-43
2022/10/13 07:00:39;;;;;;;35.88;22.17;;;10.90;99.90;;;;;;5091570;28;20122;-43
2022/10/13 07:03:04;;;;;;;39.58;22.52;;;10.80;99.90;;;;;;5091699;28;20024;-43
2022/10/13 07:05:30;;;;;;;41.53;21.17;;;11.00;99.90;;;;;;5091593;28;20048;-43
2022/10/13 07:07:56;;;;;;;33.95;22.17;;;11.10;99.90;;;;;;5091087;28;20044;-44
2022/10/13 07:10:21;;;;;;;35.78;21.88;;;11.20;99.90;;;;;;5091151;28;20039;-43
2022/10/13 07:12:47;;;;;;;35.17;21.85;;;11.10;99.90;;;;;;5091250;28;20040;-43
2022/10/13 07:15:13;;;;;;;35.72;23.52;;;10.90;99.90;;;;;;5091019;28;20122;-43
2022/10/13 07:17:38;;;;;;;35.90;21.95;;;11.20;99.90;;;;;;5089538;28;20046;-47
2022/10/13 07:20:05;;;;;;;39.28;22.85;;;11.10;99.90;;;;;;5091149;28;20040;-45
2022/10/13 07:22:31;;;;;;;41.35;22.60;;;10.90;99.90;;;;;;5090911;28;20044;-43
2022/10/13 07:24:57;;;;;;;39.20;22.58;;;11.00;99.90;;;;;;5090983;28;20039;-45
2022/10/13 07:27:23;;;;;;;39.92;22.25;;;11.00;99.90;;;;;;5091559;28;20036;-44
2022/10/13 07:29:49;;;;;;;40.63;22.85;;;11.00;99.90;;;;;;5091201;28;20032;-43
2022/10/13 07:32:15;;;;;;;37.92;23.10;;;11.30;99.90;;;;;;5090071;28;20054;-44
2022/10/13 07:34:41;;;;;;;38.60;23.33;;;11.40;99.90;;;;;;5088969;28;20595;-43
2022/10/13 07:37:07;;;;;;;39.75;24.63;;;11.40;99.90;;;;;;5090721;28;20135;-43
2022/10/13 07:39:33;;;;;;;41.75;24.40;;;11.20;99.90;;;;;;5090602;28;20119;-45
2022/10/13 07:41:58;;;;;;;39.17;25.13;;;11.30;99.90;;;;;;5090642;28;20036;-44
2022/10/13 07:44:24;;;;;;;43.20;25.52;;;11.30;99.90;;;;;;5087851;28;20024;-44
2022/10/13 07:46:50;;;;;;;40.75;25.98;;;11.60;99.90;;;;;;5089938;28;20093;-43
2022/10/13 07:49:16;;;;;;;40.60;26.30;;;11.60;99.90;;;;;;5088894;28;20052;-44
2022/10/13 07:51:42;;;;;;;37.15;23.92;;;11.40;99.90;;;;;;5090703;28;20109;-45
2022/10/13 07:54:07;;;;;;;42.85;26.38;;;11.60;99.90;;;;;;5091227;28;20364;-43
2022/10/13 07:56:33;;;;;;;40.83;25.58;;;11.60;99.90;;;;;;5090304;28;20517;-43
2022/10/13 07:59:02;;;;;;;44.30;26.00;;;11.70;99.90;;;;;;5090418;28;20040;-43
2022/10/13 08:01:28;;;;;;;40.58;25.17;;;11.90;99.90;;;;;;5088652;28;20085;-44
2022/10/13 08:03:55;;;;;;;51.45;31.27;;;11.60;99.90;;;;;;5088329;28;20472;-44
2022/10/13 08:06:21;;;;;;;47.47;27.23;;;11.80;99.90;;;;;;5083312;28;20487;-43
2022/10/13 08:08:47;;;;;;;43.78;27.40;;;11.70;99.90;;;;;;5081641;28;20155;-43
2022/10/13 08:11:14;;;;;;;50.38;29.00;;;11.90;99.90;;;;;;5088312;28;20126;-42
2022/10/13 08:13:40;;;;;;;45.10;27.70;;;11.80;99.90;;;;;;5085924;28;20042;-44
2022/10/13 08:16:06;;;;;;;52.67;29.00;;;12.20;99.90;;;;;;5083044;28;20028;-44
2022/10/13 08:18:32;;;;;;;47.30;26.90;;;12.00;99.90;;;;;;5083101;28;20044;-43
2022/10/13 08:21:01;;;;;;;43.15;30.40;;;12.00;99.90;;;;;;5082892;28;20482;-44
2022/10/13 08:23:28;;;;;;;47.00;27.05;;;12.30;99.90;;;;;;5081936;28;20032;-44
2022/10/13 08:25:53;;;;;;;44.00;26.58;;;12.30;99.90;;;;;;5084438;28;20047;-44
2022/10/13 08:28:22;;;;;;;42.30;26.80;;;12.20;99.90;;;;;;5087733;28;20574;-44
2022/10/13 08:30:50;;;;;;;44.00;28.10;;;12.00;99.90;;;;;;5086502;28;20060;-43
2022/10/13 08:33:16;;;;;;;46.67;27.75;;;12.20;99.90;;;;;;5089635;28;20056;-44
2022/10/13 08:35:42;;;;;;;44.42;27.85;;;12.30;99.90;;;;;;5087046;28;20066;-43
2022/10/13 08:38:08;;;;;;;45.63;29.10;;;12.30;99.90;;;;;;5087546;28;20035;-42
2022/10/13 08:40:34;;;;;;;45.03;28.08;;;11.90;99.90;;;;;;5089862;28;20039;-43
2022/10/13 08:43:00;;;;;;;44.67;28.42;;;12.30;99.90;;;;;;5088053;28;20028;-43
2022/10/13 08:45:29;;;;;;;49.00;29.83;;;12.20;99.90;;;;;;5087589;28;20108;-43
2022/10/13 08:47:58;;;;;;;45.80;32.08;;;11.90;99.90;;;;;;5080102;28;20578;-44
2022/10/13 08:50:28;;;;;;;50.83;28.33;;;12.00;99.90;;;;;;5084865;28;20093;-43
2022/10/13 08:53:14;;;;;;;47.70;29.80;;;12.30;99.90;;;;;;5082308;28;20031;-44
2022/10/13 08:55:54;;;;;;;48.33;29.80;;;11.90;99.90;;;;;;5081230;28;20047;-43
2022/10/13 08:58:29;;;;;;;50.75;30.58;;;11.90;99.90;;;;;;5088884;28;20042;-43
2022/10/13 09:01:13;;;;;;;51.70;28.85;;;12.00;99.90;;;;;;5085119;28;20472;-43
2022/10/13 09:03:54;;;;;;;52.42;29.77;;;12.10;99.90;;;;;;5083920;28;20039;-42
2022/10/13 09:06:45;;;;;;;56.67;31.45;;;12.20;99.90;;;;;;5085823;28;20044;-44
2022/10/13 09:09:14;;;;;;;54.00;31.58;;;12.40;99.90;;;;;;5074866;28;20048;-44
2022/10/13 09:11:44;;;;;;;53.65;31.40;;;12.40;99.90;;;;;;5086088;28;20040;-45
2022/10/13 09:14:17;;;;;;;58.00;36.75;;;12.40;99.90;;;;;;5082175;28;20113;-43
2022/10/13 09:16:44;;;;;;;56.55;33.08;;;12.40;99.90;;;;;;5080999;28;20036;-42
2022/10/13 09:19:21;;;;;;;56.08;34.60;;;12.80;99.90;;;;;;5083628;28;20472;-45
2022/10/13 09:21:53;;;;;;;53.72;32.58;;;12.90;99.90;;;;;;5081389;28;20035;-43
2022/10/13 09:24:21;;;;;;;53.35;33.38;;;12.50;99.90;;;;;;5078983;28;20067;-45
2022/10/13 09:26:51;;;;;;;51.70;35.35;;;12.90;99.90;;;;;;5080454;28;20044;-44
2022/10/13 09:29:24;;;;;;;57.40;31.90;;;12.40;99.90;;;;;;5077308;28;20078;-43
2022/10/13 09:31:54;;;;;;;54.53;36.23;;;12.40;99.90;;;;;;5084487;28;20049;-43
2022/10/13 09:34:20;;;;;;;53.80;36.83;;;12.70;99.90;;;;;;5077009;28;20377;-43
2022/10/13 09:37:00;;;;;;;56.40;32.95;;;12.80;99.90;;;;;;5081951;28;20131;-44
2022/10/13 09:39:26;;;;;;;60.78;34.50;;;12.80;99.90;;;;;;5076840;28;20045;-43
2022/10/13 09:42:07;;;;;;;61.17;40.35;;;12.40;99.90;;;;;;5083005;28;20028;-43
2022/10/13 09:44:33;;;;;;;60.95;35.25;;;12.80;99.90;;;;;;5079487;28;20028;-44
2022/10/13 09:47:02;;;;;;;66.32;37.35;;;12.50;99.90;;;;;;5081449;28;20096;-44
2022/10/13 09:49:38;;;;;;;69.20;42.22;;;12.70;99.90;;;;;;5074198;28;20079;-44
2022/10/13 09:52:13;;;;;;;64.97;41.95;;;12.40;99.90;;;;;;5080315;28;20495;-43
2022/10/13 09:54:39;;;;;;;61.47;38.35;;;12.90;99.90;;;;;;5080078;28;20032;-42
2022/10/13 09:57:30;;;;;;;67.70;45.15;;;12.80;99.90;;;;;;5081104;28;20480;-42
2022/10/13 10:00:21;;;;;;;63.55;43.80;;;12.60;99.90;;;;;;5086037;28;20453;-43
2022/10/13 10:02:54;;;;;;;65.65;40.92;;;12.90;99.90;;;;;;5084207;28;20491;-43
2022/10/13 10:05:40;;;;;;;72.35;42.08;;;12.80;99.90;;;;;;5084868;28;20044;-43
2022/10/13 10:08:20;;;;;;;66.78;40.38;;;12.60;99.90;;;;;;5084895;28;20127;-44
2022/10/13 10:10:46;;;;;;;69.88;46.75;;;12.60;99.90;;;;;;5082713;28;20054;-43
2022/10/13 10:13:13;;;;;;;67.93;40.95;;;13.00;99.90;;;;;;5085912;28;20107;-43
2022/10/13 10:15:49;;;;;;;73.47;42.03;;;12.60;99.90;;;;;;5082441;28;20040;-43
2022/10/13 10:18:40;;;;;;;66.43;40.80;;;12.60;99.90;;;;;;5083015;28;20075;-45
2022/10/13 10:21:15;;;;;;;68.45;46.38;;;12.70;99.90;;;;;;5085209;28;20040;-44
2022/10/13 10:23:52;;;;;;;71.72;41.95;;;12.80;99.90;;;;;;5084675;28;20039;-44
2022/10/13 10:26:27;;;;;;;68.72;40.50;;;13.10;99.90;;;;;;5083432;28;20173;-43
2022/10/13 10:29:18;;;;;;;76.53;47.38;;;13.00;99.90;;;;;;5081980;28;20250;-43
2022/10/13 10:32:04;;;;;;;72.07;45.85;;;12.80;99.90;;;;;;5087210;28;20105;-43
2022/10/13 10:34:36;;;;;;;77.78;43.55;;;13.30;99.90;;;;;;5089369;28;20138;-43
2022/10/13 10:37:13;;;;;;;77.50;48.25;;;13.20;99.90;;;;;;5087313;28;20048;-42
2022/10/13 10:39:42;;;;;;;77.63;48.05;;;12.90;99.90;;;;;;5086481;28;20036;-43
2022/10/13 10:42:17;;;;;;;70.25;46.97;;;12.90;99.90;;;;;;5087249;28;20040;-43
2022/10/13 10:44:47;;;;;;;71.57;43.05;;;13.30;99.90;;;;;;5087921;28;20036;-42
2022/10/13 10:47:25;;;;;;;78.53;49.45;;;13.00;99.90;;;;;;5088228;28;20048;-43
2022/10/13 10:49:58;;;;;;;72.97;47.50;;;13.30;99.90;;;;;;5088800;28;20094;-43
2022/10/13 10:52:34;;;;;;;80.90;44.07;;;13.00;99.90;;;;;;5086151;28;20079;-43
2022/10/13 10:55:19;;;;;;;71.40;47.35;;;13.10;99.90;;;;;;5089815;28;20117;-44
2022/10/13 10:58:06;;;;;;;73.22;44.22;;;13.20;99.90;;;;;;5090656;28;20344;-42
2022/10/13 11:00:41;;;;;;;73.28;48.63;;;13.00;99.90;;;;;;5090608;28;20085;-43
2022/10/13 11:03:41;;;;;;;76.68;50.03;;;13.20;99.90;;;;;;5091415;28;20071;-43
2022/10/13 11:06:16;;;;;;;75.32;49.97;;;13.10;99.90;;;;;;5088671;28;20044;-43
2022/10/13 11:08:46;;;;;;;79.60;45.22;;;13.50;99.90;;;;;;5091228;28;20147;-43
2022/10/13 11:11:24;;;;;;;69.97;46.60;;;13.30;99.90;;;;;;5090918;28;20100;-44
2022/10/13 11:14:05;;;;;;;72.40;49.65;;;13.30;99.90;;;;;;5085820;28;20040;-43
2022/10/13 11:16:56;;;;;;;74.78;49.45;;;13.60;99.90;;;;;;5087839;28;20051;-43
2022/10/13 11:19:39;;;;;;;71.53;49.28;;;13.50;99.90;;;;;;5084802;28;20451;-43
2022/10/13 11:22:05;;;;;;;71.22;49.08;;;13.20;99.90;;;;;;5084115;28;20127;-43
2022/10/13 11:24:33;;;;;;;67.95;48.70;;;13.20;99.90;;;;;;5088583;28;20790;-43
2022/10/13 11:27:11;;;;;;;71.97;48.22;;;13.60;99.90;;;;;;5084656;28;20040;-44
2022/10/13 11:29:57;;;;;;;74.15;45.00;;;13.20;99.90;;;;;;5079790;28;20090;-42
2022/10/13 11:35:03;;;;;;;69.45;49.70;;;13.30;99.90;;;;;;5076648;28;20055;-43
2022/10/13 11:37:49;;;;;;;75.80;50.92;;;13.20;99.90;;;;;;5085169;28;20075;-45
2022/10/13 11:40:30;;;;;;;74.03;51.60;;;13.60;99.90;;;;;;5082409;28;20043;-43
2022/10/13 11:43:27;;;;;;;73.50;51.72;;;13.70;99.90;;;;;;5085179;28;20043;-43
2022/10/13 11:46:04;;;;;;;76.53;51.45;;;13.50;99.90;;;;;;5085363;28;20114;-43
2022/10/13 11:48:39;;;;;;;68.60;49.63;;;13.40;99.90;;;;;;5082794;28;20040;-43
2022/10/13 11:51:31;;;;;;;71.53;52.58;;;13.70;99.90;;;;;;5086425;28;20032;-43
2022/10/13 11:53:57;;;;;;;72.55;51.55;;;13.70;99.90;;;;;;5082800;28;20036;-43
2022/10/13 11:56:43;;;;;;;78.40;50.50;;;13.40;99.90;;;;;;5084667;28;20032;-43
2022/10/13 11:59:26;;;;;;;67.38;49.38;;;13.30;99.90;;;;;;5085990;28;20046;-44
2022/10/13 12:01:54;;;;;;;77.10;50.50;;;13.80;99.90;;;;;;5081555;28;20051;-43
2022/10/13 12:04:21;;;;;;;69.43;49.35;;;13.50;99.90;;;;;;5086164;28;20048;-43
2022/10/13 12:07:00;;;;;;;70.40;49.80;;;13.40;99.90;;;;;;5086018;28;20055;-43
2022/10/13 12:09:27;;;;;;;74.03;51.25;;;13.40;99.90;;;;;;5081702;28;20031;-43
2022/10/13 12:11:58;;;;;;;69.07;48.28;;;13.80;99.90;;;;;;5087571;28;20475;-46
2022/10/13 12:14:31;;;;;;;75.70;48.90;;;13.40;99.90;;;;;;5083827;28;20047;-43
2022/10/13 12:16:58;;;;;;;67.60;47.45;;;13.80;99.90;;;;;;5082248;28;20044;-43
2022/10/13 12:19:27;;;;;;;68.28;48.85;;;13.70;99.90;;;;;;5087547;28;20085;-44
2022/10/13 12:21:56;;;;;;;68.88;48.30;;;13.70;99.90;;;;;;5083987;28;20509;-43
2022/10/13 12:24:24;;;;;;;71.13;47.97;;;13.70;99.90;;;;;;5081789;28;20040;-44
2022/10/13 12:26:50;;;;;;;74.63;48.80;;;13.40;99.90;;;;;;5088073;28;20036;-43
2022/10/13 12:29:18;;;;;;;71.22;47.80;;;13.60;99.90;;;;;;5088700;28;20040;-42
2022/10/13 12:31:49;;;;;;;73.05;49.58;;;13.50;99.90;;;;;;5087747;28;20038;-43
2022/10/13 12:34:26;;;;;;;73.80;49.42;;;14.00;99.90;;;;;;5089346;28;20040;-44
2022/10/13 12:37:15;;;;;;;72.40;49.42;;;14.10;99.90;;;;;;5089734;28;20044;-43
2022/10/13 12:39:42;;;;;;;70.53;48.63;;;14.00;99.90;;;;;;5088011;28;20483;-43
2022/10/13 12:42:11;;;;;;;65.60;46.70;;;13.70;99.90;;;;;;5088158;28;20487;-43
2022/10/13 12:44:38;;;;;;;53.53;38.60;;;14.20;99.90;;;;;;5089843;28;20417;-43
2022/10/13 12:47:03;;;;;;;46.88;35.70;;;14.20;99.90;;;;;;5089437;28;20399;-43